Time;durP1;ratioP1;P1;durP2;ratioP2;P2;SDS_P1;SDS_P2;PMS_P1;PMS_P2;Temp;Humidity;BMP_temperature;BMP_pressure;BME280_temperature;BME280_humidity;BME280_pressure;Samples;Min_cycle;Max_cycle;Signal;HPM_P1;HPM_P2
2021/08/25 00:18:08;;;;;;;6.80;3.72;;;;;;;;;;4458474;28;20109;-72
2021/08/25 00:20:35;;;;;;;6.55;3.22;;;;;;;;;;4233606;33;20105;-72
2021/08/25 00:23:01;;;;;;;8.75;3.37;;;;;;;;;;4224449;33;20200;-73
2021/08/25 00:25:27;;;;;;;6.15;2.72;;;;;;;;;;4219545;34;20152;-71
2021/08/25 00:27:53;;;;;;;6.45;3.15;;;;;;;;;;4206912;34;20094;-72
2021/08/25 00:30:19;;;;;;;4.18;2.92;;;;;;;;;;4206605;34;20148;-72
2021/08/25 00:32:45;;;;;;;7.32;3.55;;;;;;;;;;4219585;34;20124;-73
2021/08/25 00:35:11;;;;;;;6.87;3.47;;;;;;;;;;4206863;34;20125;-73
2021/08/25 00:37:38;;;;;;;6.05;3.80;;;;;;;;;;4219328;34;20113;-73
2021/08/25 00:40:05;;;;;;;4.60;3.15;;;;;;;;;;4219476;34;20469;-72
2021/08/25 00:42:30;;;;;;;4.75;2.85;;;;;;;;;;4206411;34;20105;-72
2021/08/25 00:45:06;;;;;;;3.30;2.50;;;;;;;;;;4219580;34;20140;-73
2021/08/25 00:47:50;;;;;;;;;;;;;;;;;;4206909;34;20537;-74
2021/08/25 00:50:16;;;;;;;5.78;3.78;;;;;;;;;;4217955;34;19972;-73
2021/08/25 00:52:42;;;;;;;6.85;3.75;;;;;;;;;;4219122;34;20120;-74
2021/08/25 00:55:11;;;;;;;7.00;4.32;;;;;;;;;;4206294;34;20140;-71
2021/08/25 00:57:37;;;;;;;8.07;4.00;;;;;;;;;;4219362;34;20132;-75
2021/08/25 01:00:06;;;;;;;5.30;3.70;;;;;;;;;;4195131;34;20097;-73
2021/08/25 01:02:58;;;;;;;6.20;3.67;;;;;;;;;;4219122;34;20140;-73
2021/08/25 01:05:24;;;;;;;6.28;3.60;;;;;;;;;;4216636;34;20116;-73
2021/08/25 01:07:50;;;;;;;6.50;4.07;;;;;;;;;;4206567;34;20169;-73
2021/08/25 01:10:30;;;;;;;5.25;3.37;;;;;;;;;;4219191;34;20198;-72
2021/08/25 01:12:57;;;;;;;5.32;3.87;;;;;;;;;;4219340;34;20097;-73
2021/08/25 01:15:25;;;;;;;5.20;2.53;;;;;;;;;;4206554;34;20205;-67
2021/08/25 01:17:51;;;;;;;2.42;2.15;;;;;;;;;;4219251;34;20208;-66
2021/08/25 01:20:19;;;;;;;2.78;2.47;;;;;;;;;;4205911;34;20106;-67
2021/08/25 01:22:45;;;;;;;2.60;1.95;;;;;;;;;;4195085;34;20160;-66
2021/08/25 01:25:13;;;;;;;4.22;3.00;;;;;;;;;;4219112;34;20580;-66
2021/08/25 01:27:45;;;;;;;6.07;3.42;;;;;;;;;;4206329;34;20101;-67
2021/08/25 01:30:11;;;;;;;8.52;3.53;;;;;;;;;;4195101;34;20184;-66
2021/08/25 01:32:37;;;;;;;4.05;3.05;;;;;;;;;;4219339;34;20169;-66
2021/08/25 01:35:03;;;;;;;2.08;1.87;;;;;;;;;;4219023;34;20151;-67
2021/08/25 01:37:29;;;;;;;5.47;3.35;;;;;;;;;;4218840;34;20510;-67
2021/08/25 01:39:56;;;;;;;10.02;3.72;;;;;;;;;;4206147;34;20133;-66
2021/08/25 01:42:22;;;;;;;14.23;3.53;;;;;;;;;;4218990;34;20104;-66
2021/08/25 01:44:48;;;;;;;5.00;2.65;;;;;;;;;;4218863;34;20643;-67
2021/08/25 01:47:14;;;;;;;4.90;2.75;;;;;;;;;;4218563;34;20129;-66
2021/08/25 01:49:41;;;;;;;5.30;2.35;;;;;;;;;;4205900;34;20113;-66
2021/08/25 01:52:07;;;;;;;9.48;3.58;;;;;;;;;;4228392;33;20113;-66
2021/08/25 01:54:33;;;;;;;5.12;3.08;;;;;;;;;;4232809;33;20112;-66
2021/08/25 01:56:59;;;;;;;9.27;3.58;;;;;;;;;;4232844;33;20108;-66
2021/08/25 01:59:25;;;;;;;5.85;3.53;;;;;;;;;;4232760;33;20113;-66
2021/08/25 02:01:50;;;;;;;6.78;4.12;;;;;;;;;;4219605;33;20120;-66
2021/08/25 02:04:16;;;;;;;7.40;3.62;;;;;;;;;;4219753;33;20231;-67
2021/08/25 02:06:42;;;;;;;3.65;3.03;;;;;;;;;;4232620;33;20139;-66
2021/08/25 02:09:08;;;;;;;4.50;2.45;;;;;;;;;;4232650;33;20120;-66
2021/08/25 02:11:34;;;;;;;3.85;2.35;;;;;;;;;;4232568;33;20104;-67
2021/08/25 02:13:59;;;;;;;5.22;3.62;;;;;;;;;;4204705;34;20137;-66
2021/08/25 02:16:25;;;;;;;6.85;3.37;;;;;;;;;;4205131;34;20128;-66
2021/08/25 02:18:51;;;;;;;9.75;3.58;;;;;;;;;;4204651;34;20125;-66
2021/08/25 02:21:19;;;;;;;9.73;3.58;;;;;;;;;;4204826;34;20222;-69
2021/08/25 02:23:45;;;;;;;10.80;3.58;;;;;;;;;;4204600;34;20121;-68
2021/08/25 02:26:16;;;;;;;14.30;4.05;;;;;;;;;;4213483;34;20220;-69
2021/08/25 02:28:46;;;;;;;6.43;2.40;;;;;;;;;;4205990;34;20132;-67
2021/08/25 02:31:12;;;;;;;3.50;2.72;;;;;;;;;;4206900;34;20109;-67
2021/08/25 02:33:38;;;;;;;3.12;2.28;;;;;;;;;;4196053;34;20209;-68
2021/08/25 02:36:05;;;;;;;4.37;2.37;;;;;;;;;;4220514;34;20514;-67
2021/08/25 02:38:31;;;;;;;4.45;3.12;;;;;;;;;;4220297;33;20116;-67
2021/08/25 02:40:57;;;;;;;7.20;3.15;;;;;;;;;;4220492;34;20208;-67
2021/08/25 02:43:23;;;;;;;3.45;2.67;;;;;;;;;;4220505;33;20585;-66
2021/08/25 02:45:49;;;;;;;2.92;2.40;;;;;;;;;;4220519;34;20147;-68
2021/08/25 02:48:15;;;;;;;5.78;2.67;;;;;;;;;;4220527;33;20224;-64
2021/08/25 02:50:40;;;;;;;4.68;2.80;;;;;;;;;;4220533;34;20141;-66
2021/08/25 02:53:06;;;;;;;4.75;3.03;;;;;;;;;;4220241;34;20108;-64
2021/08/25 02:55:32;;;;;;;7.37;3.37;;;;;;;;;;4207668;34;20198;-66
2021/08/25 02:57:58;;;;;;;2.70;1.77;;;;;;;;;;4220189;34;20208;-63
2021/08/25 03:00:25;;;;;;;4.85;3.28;;;;;;;;;;4220276;34;20606;-66
2021/08/25 03:02:51;;;;;;;7.70;4.07;;;;;;;;;;4220521;34;20098;-65
2021/08/25 03:05:17;;;;;;;3.60;2.42;;;;;;;;;;4207340;34;20140;-66
2021/08/25 03:07:43;;;;;;;6.93;4.57;;;;;;;;;;4220307;34;20121;-64
2021/08/25 03:10:09;;;;;;;5.53;4.05;;;;;;;;;;4218201;34;20118;-65
2021/08/25 03:12:35;;;;;;;4.35;3.35;;;;;;;;;;4205139;34;20124;-65
2021/08/25 03:15:03;;;;;;;3.70;3.05;;;;;;;;;;4204935;34;20120;-66
2021/08/25 03:17:28;;;;;;;4.68;3.83;;;;;;;;;;4218226;34;20105;-65
2021/08/25 03:19:54;;;;;;;5.03;2.95;;;;;;;;;;4216555;34;20141;-65
2021/08/25 03:22:20;;;;;;;5.60;3.35;;;;;;;;;;4218279;34;20217;-64
2021/08/25 03:24:46;;;;;;;6.05;3.80;;;;;;;;;;4205833;34;20136;-65
2021/08/25 03:27:12;;;;;;;10.57;4.30;;;;;;;;;;4220107;34;20105;-64
2021/08/25 03:29:38;;;;;;;6.32;4.12;;;;;;;;;;4218609;34;20137;-66
2021/08/25 03:32:04;;;;;;;6.30;4.28;;;;;;;;;;4219980;34;20477;-66
2021/08/25 03:34:29;;;;;;;3.83;3.28;;;;;;;;;;4220019;34;20135;-65
2021/08/25 03:36:55;;;;;;;8.55;3.92;;;;;;;;;;4220281;34;20517;-64
2021/08/25 03:39:21;;;;;;;2.90;2.37;;;;;;;;;;4220303;34;20121;-65
2021/08/25 03:41:47;;;;;;;12.18;4.60;;;;;;;;;;4219903;34;20116;-64
2021/08/25 03:44:13;;;;;;;7.35;4.18;;;;;;;;;;4219561;34;20530;-64
2021/08/25 03:46:39;;;;;;;11.48;2.60;;;;;;;;;;4220091;34;20169;-64
2021/08/25 03:49:04;;;;;;;10.38;3.97;;;;;;;;;;4219930;34;20128;-65
2021/08/25 03:51:30;;;;;;;4.82;2.95;;;;;;;;;;4219720;34;20219;-64
2021/08/25 03:53:56;;;;;;;5.75;3.78;;;;;;;;;;4220185;34;20228;-65
2021/08/25 03:56:22;;;;;;;4.37;2.58;;;;;;;;;;4206848;34;20333;-65
2021/08/25 03:58:48;;;;;;;6.22;4.25;;;;;;;;;;4220055;34;20104;-65
2021/08/25 04:01:13;;;;;;;4.68;3.30;;;;;;;;;;4220049;34;20126;-65
2021/08/25 04:03:39;;;;;;;5.10;3.17;;;;;;;;;;4219703;34;20205;-65
2021/08/25 04:06:05;;;;;;;4.20;3.28;;;;;;;;;;4220046;34;20126;-65
2021/08/25 04:08:31;;;;;;;6.22;3.60;;;;;;;;;;4220024;34;20106;-65
2021/08/25 04:10:57;;;;;;;4.97;3.25;;;;;;;;;;4219616;34;20216;-65
2021/08/25 04:13:22;;;;;;;4.30;3.12;;;;;;;;;;4219716;34;20129;-65
2021/08/25 04:15:48;;;;;;;5.68;3.28;;;;;;;;;;4218232;34;20212;-64
2021/08/25 04:18:14;;;;;;;4.20;2.75;;;;;;;;;;4219594;34;20122;-65
2021/08/25 04:20:40;;;;;;;7.75;3.75;;;;;;;;;;4219626;34;20236;-65
2021/08/25 04:23:06;;;;;;;5.45;3.58;;;;;;;;;;4219597;34;20129;-65
2021/08/25 04:25:32;;;;;;;5.47;3.25;;;;;;;;;;4219561;34;20163;-65
2021/08/25 04:27:57;;;;;;;4.93;3.20;;;;;;;;;;4219647;34;20129;-64
2021/08/25 04:30:23;;;;;;;4.40;2.80;;;;;;;;;;4219653;34;20132;-66
2021/08/25 04:32:49;;;;;;;7.07;2.70;;;;;;;;;;4219669;34;20141;-64
2021/08/25 04:35:15;;;;;;;8.10;3.25;;;;;;;;;;4219764;34;20135;-65
2021/08/25 04:37:41;;;;;;;3.58;3.03;;;;;;;;;;4206648;34;20134;-64
2021/08/25 04:40:07;;;;;;;4.90;2.78;;;;;;;;;;4218141;34;20510;-65
2021/08/25 04:42:33;;;;;;;7.72;3.10;;;;;;;;;;4219482;34;20107;-65
2021/08/25 04:44:59;;;;;;;3.10;2.40;;;;;;;;;;4219395;34;20133;-66
2021/08/25 04:47:25;;;;;;;3.37;2.60;;;;;;;;;;4219239;34;20093;-65
2021/08/25 04:49:51;;;;;;;4.57;2.67;;;;;;;;;;4206654;34;20113;-65
2021/08/25 04:52:17;;;;;;;5.57;2.80;;;;;;;;;;4219307;34;20113;-65
2021/08/25 04:54:43;;;;;;;3.95;2.58;;;;;;;;;;4218528;34;20128;-65
2021/08/25 04:57:09;;;;;;;14.05;3.58;;;;;;;;;;4218301;34;20111;-64
2021/08/25 04:59:35;;;;;;;9.57;4.55;;;;;;;;;;4219383;34;20128;-65
2021/08/25 05:02:01;;;;;;;6.95;2.50;;;;;;;;;;4219333;34;20261;-65
2021/08/25 05:04:27;;;;;;;4.90;3.10;;;;;;;;;;4219374;34;20125;-65
2021/08/25 05:06:54;;;;;;;2.47;2.28;;;;;;;;;;4216588;33;20225;-65
2021/08/25 05:09:21;;;;;;;7.62;2.83;;;;;;;;;;4195002;34;20118;-69
2021/08/25 05:11:47;;;;;;;5.12;2.65;;;;;;;;;;4219085;33;20221;-64
2021/08/25 05:14:13;;;;;;;11.12;3.30;;;;;;;;;;4219110;34;20110;-63
2021/08/25 05:16:39;;;;;;;8.23;3.15;;;;;;;;;;4218408;34;20228;-63
2021/08/25 05:19:05;;;;;;;2.10;1.83;;;;;;;;;;4219167;34;20097;-65
2021/08/25 05:21:31;;;;;;;13.85;3.05;;;;;;;;;;4218593;34;20116;-63
2021/08/25 05:24:01;;;;;;;12.43;2.78;;;;;;;;;;4194781;34;20105;-64
2021/08/25 05:26:28;;;;;;;2.87;2.35;;;;;;;;;;4218909;34;20106;-63
2021/08/25 05:28:56;;;;;;;2.08;1.92;;;;;;;;;;4218487;34;20133;-63
2021/08/25 05:31:25;;;;;;;3.30;2.85;;;;;;;;;;4206004;34;20120;-63
2021/08/25 05:33:51;;;;;;;6.30;2.70;;;;;;;;;;4216941;33;20117;-66
2021/08/25 05:36:17;;;;;;;3.90;2.78;;;;;;;;;;4219149;34;20133;-66
2021/08/25 05:38:43;;;;;;;6.62;2.65;;;;;;;;;;4206110;34;20109;-66
2021/08/25 05:41:09;;;;;;;4.80;2.15;;;;;;;;;;4218706;34;20544;-70
2021/08/25 05:43:36;;;;;;;7.82;2.87;;;;;;;;;;4218846;34;20124;-67
2021/08/25 05:46:03;;;;;;;2.83;2.12;;;;;;;;;;4206346;34;20120;-66
2021/08/25 05:48:29;;;;;;;3.03;2.28;;;;;;;;;;4206043;34;20113;-66
2021/08/25 05:50:55;;;;;;;2.97;2.37;;;;;;;;;;4218658;34;20227;-65
2021/08/25 05:53:21;;;;;;;8.40;3.17;;;;;;;;;;4230432;33;20120;-66
2021/08/25 05:55:47;;;;;;;3.53;2.05;;;;;;;;;;4204934;33;20121;-66
2021/08/25 05:58:14;;;;;;;2.28;1.60;;;;;;;;;;4192004;34;20205;-66
2021/08/25 06:00:40;;;;;;;5.32;2.62;;;;;;;;;;4204634;34;20188;-66
2021/08/25 06:03:06;;;;;;;3.53;2.17;;;;;;;;;;4205104;34;20152;-66
2021/08/25 06:05:32;;;;;;;2.62;2.03;;;;;;;;;;4204297;34;20236;-69
2021/08/25 06:07:58;;;;;;;2.12;1.83;;;;;;;;;;4204753;34;20553;-64
2021/08/25 06:10:24;;;;;;;3.25;1.70;;;;;;;;;;4204312;34;20113;-64
2021/08/25 06:12:50;;;;;;;2.87;1.85;;;;;;;;;;4191947;34;20529;-64
2021/08/25 06:15:16;;;;;;;3.58;1.90;;;;;;;;;;4204395;34;20309;-63
2021/08/25 06:17:43;;;;;;;2.50;2.03;;;;;;;;;;4204313;34;20497;-64
2021/08/25 06:20:10;;;;;;;6.57;2.15;;;;;;;;;;4204502;34;20221;-64
2021/08/25 06:22:37;;;;;;;2.45;2.10;;;;;;;;;;4191793;34;20133;-65
2021/08/25 06:25:03;;;;;;;3.40;2.40;;;;;;;;;;4204366;34;20477;-63
2021/08/25 06:27:29;;;;;;;3.58;2.42;;;;;;;;;;4204369;34;20163;-65
2021/08/25 06:29:55;;;;;;;5.03;2.90;;;;;;;;;;4204244;34;20132;-65
2021/08/25 06:32:21;;;;;;;2.25;1.67;;;;;;;;;;4204283;34;20457;-64
2021/08/25 06:34:47;;;;;;;3.22;2.50;;;;;;;;;;4204462;34;20466;-63
2021/08/25 06:37:13;;;;;;;2.47;2.15;;;;;;;;;;4204756;34;20105;-61
2021/08/25 06:39:39;;;;;;;2.97;2.35;;;;;;;;;;4204532;34;20144;-61
2021/08/25 06:42:05;;;;;;;2.30;2.10;;;;;;;;;;4203971;34;20462;-62
2021/08/25 06:44:31;;;;;;;7.82;2.80;;;;;;;;;;4204290;34;20202;-61
2021/08/25 06:46:57;;;;;;;2.50;1.92;;;;;;;;;;4204349;34;20534;-63
2021/08/25 06:49:23;;;;;;;3.62;2.50;;;;;;;;;;4204116;34;20532;-65
2021/08/25 06:51:50;;;;;;;2.45;1.80;;;;;;;;;;4197725;33;20465;-63
2021/08/25 06:54:17;;;;;;;2.42;2.22;;;;;;;;;;4222005;33;20442;-63
2021/08/25 06:56:43;;;;;;;2.53;2.33;;;;;;;;;;4191205;34;20102;-63
2021/08/25 06:59:09;;;;;;;3.35;2.50;;;;;;;;;;4191365;34;20101;-60
2021/08/25 07:01:37;;;;;;;2.87;2.28;;;;;;;;;;4207841;33;20101;-63
2021/08/25 07:04:04;;;;;;;2.22;2.00;;;;;;;;;;4217921;34;20200;-63
2021/08/25 07:06:30;;;;;;;4.40;2.60;;;;;;;;;;4204945;34;20125;-63
2021/08/25 07:08:56;;;;;;;3.22;2.67;;;;;;;;;;4217713;34;20156;-64
2021/08/25 07:11:23;;;;;;;3.80;2.33;;;;;;;;;;4182231;34;20120;-63
2021/08/25 07:13:49;;;;;;;2.83;2.50;;;;;;;;;;4205170;34;20123;-63
2021/08/25 07:16:16;;;;;;;3.72;2.33;;;;;;;;;;4217835;34;20255;-64
2021/08/25 07:18:43;;;;;;;6.28;2.70;;;;;;;;;;4205856;34;20545;-64
2021/08/25 07:21:11;;;;;;;4.50;3.83;;;;;;;;;;4220050;34;20509;-64
2021/08/25 07:23:37;;;;;;;5.62;2.25;;;;;;;;;;4219826;34;20197;-63
2021/08/25 07:26:03;;;;;;;4.65;3.17;;;;;;;;;;4220134;34;20169;-63
2021/08/25 07:28:29;;;;;;;5.78;3.00;;;;;;;;;;4219002;33;20097;-62
2021/08/25 07:30:55;;;;;;;4.25;3.12;;;;;;;;;;4219068;33;20160;-64
2021/08/25 07:33:22;;;;;;;5.47;2.97;;;;;;;;;;4206826;34;20117;-61
2021/08/25 07:35:48;;;;;;;5.00;2.90;;;;;;;;;;4220157;34;20629;-61
2021/08/25 07:38:15;;;;;;;3.40;2.70;;;;;;;;;;4219849;34;20128;-62
2021/08/25 07:40:43;;;;;;;3.67;2.40;;;;;;;;;;4232131;33;20537;-62
2021/08/25 07:43:09;;;;;;;6.32;3.28;;;;;;;;;;4234093;33;20117;-62
2021/08/25 07:45:36;;;;;;;5.97;3.87;;;;;;;;;;4233785;33;20512;-62
2021/08/25 07:48:02;;;;;;;5.55;3.85;;;;;;;;;;4230666;33;20108;-62
2021/08/25 07:50:28;;;;;;;4.43;3.75;;;;;;;;;;4216464;33;20141;-63
2021/08/25 07:52:54;;;;;;;3.53;2.90;;;;;;;;;;4219136;33;20146;-63
2021/08/25 07:55:20;;;;;;;4.97;3.72;;;;;;;;;;4219519;34;20152;-61
2021/08/25 07:57:45;;;;;;;5.78;3.50;;;;;;;;;;4219859;34;20541;-62
2021/08/25 08:00:12;;;;;;;9.75;3.58;;;;;;;;;;4219810;34;20249;-62
2021/08/25 08:02:38;;;;;;;5.97;4.20;;;;;;;;;;4219611;34;20117;-68
2021/08/25 08:05:04;;;;;;;4.10;3.42;;;;;;;;;;4219970;34;20137;-64
2021/08/25 08:07:30;;;;;;;3.62;2.95;;;;;;;;;;4219651;34;20124;-62
2021/08/25 08:09:56;;;;;;;12.40;3.58;;;;;;;;;;4219488;34;20591;-64
2021/08/25 08:12:22;;;;;;;9.93;3.83;;;;;;;;;;4219960;34;20121;-64
2021/08/25 08:14:48;;;;;;;14.48;3.67;;;;;;;;;;4206862;34;20117;-65
2021/08/25 08:17:16;;;;;;;6.43;2.95;;;;;;;;;;4219922;34;20515;-66
2021/08/25 08:19:42;;;;;;;11.27;3.40;;;;;;;;;;4219928;34;20117;-67
2021/08/25 08:22:08;;;;;;;4.45;3.15;;;;;;;;;;4219603;34;20544;-64
2021/08/25 08:24:33;;;;;;;8.55;4.00;;;;;;;;;;4219211;34;20144;-65
2021/08/25 08:26:59;;;;;;;6.32;3.20;;;;;;;;;;4220058;34;20121;-65
2021/08/25 08:29:27;;;;;;;8.35;4.37;;;;;;;;;;4219736;34;20465;-65
2021/08/25 08:31:53;;;;;;;5.97;4.00;;;;;;;;;;4219588;34;20102;-66
2021/08/25 08:34:18;;;;;;;4.62;3.85;;;;;;;;;;4206647;34;20136;-70
2021/08/25 08:36:44;;;;;;;5.22;4.32;;;;;;;;;;4216124;33;20568;-66
2021/08/25 08:39:10;;;;;;;5.90;3.85;;;;;;;;;;4211310;34;20133;-66
2021/08/25 08:41:39;;;;;;;8.93;4.10;;;;;;;;;;4205343;34;20215;-68
2021/08/25 08:44:05;;;;;;;14.38;5.37;;;;;;;;;;4216616;34;20104;-67
2021/08/25 08:46:31;;;;;;;7.62;3.90;;;;;;;;;;4219306;33;20449;-67
2021/08/25 08:48:57;;;;;;;9.73;3.92;;;;;;;;;;4195008;34;20101;-69
2021/08/25 08:51:24;;;;;;;9.45;4.62;;;;;;;;;;4216242;33;20133;-68
2021/08/25 08:53:51;;;;;;;4.62;3.05;;;;;;;;;;4205818;34;20189;-68
2021/08/25 08:56:17;;;;;;;6.07;3.87;;;;;;;;;;4206228;34;20136;-68
2021/08/25 08:58:43;;;;;;;8.07;4.45;;;;;;;;;;4219259;34;20105;-68
2021/08/25 09:01:09;;;;;;;6.65;3.85;;;;;;;;;;4218958;34;20122;-68
2021/08/25 09:03:39;;;;;;;7.40;4.65;;;;;;;;;;4217671;34;20113;-67
2021/08/25 09:06:06;;;;;;;9.75;4.35;;;;;;;;;;4219090;34;20525;-66
2021/08/25 09:08:33;;;;;;;7.05;4.18;;;;;;;;;;4210426;34;20125;-70
2021/08/25 09:11:15;;;;;;;6.65;3.55;;;;;;;;;;4192322;34;20191;-70
2021/08/25 09:13:48;;;;;;;9.40;4.25;;;;;;;;;;4217431;33;20125;-68
2021/08/25 09:16:31;;;;;;;5.00;3.58;;;;;;;;;;4217262;34;20114;-67
2021/08/25 09:19:04;;;;;;;8.50;4.53;;;;;;;;;;4205147;34;20513;-67
2021/08/25 09:21:51;;;;;;;5.70;4.10;;;;;;;;;;4211914;33;20117;-68
2021/08/25 09:24:22;;;;;;;9.02;3.78;;;;;;;;;;4219425;34;20129;-68
2021/08/25 09:27:07;;;;;;;5.82;3.65;;;;;;;;;;4218842;33;20109;-68
2021/08/25 09:29:34;;;;;;;6.00;3.47;;;;;;;;;;4219213;34;20101;-69
2021/08/25 09:32:00;;;;;;;8.18;4.25;;;;;;;;;;4205524;34;20268;-69
2021/08/25 09:34:30;;;;;;;7.78;3.55;;;;;;;;;;4210710;34;20114;-68
2021/08/25 09:37:15;;;;;;;6.60;3.42;;;;;;;;;;4205091;34;20185;-67
2021/08/25 09:39:48;;;;;;;5.18;3.00;;;;;;;;;;4205240;34;20106;-66
2021/08/25 09:42:16;;;;;;;6.22;3.20;;;;;;;;;;4204522;34;20228;-66
2021/08/25 09:44:42;;;;;;;7.25;4.15;;;;;;;;;;4204547;34;20110;-66
2021/08/25 09:47:08;;;;;;;12.85;4.57;;;;;;;;;;4212431;34;20121;-67
2021/08/25 09:49:34;;;;;;;8.38;4.07;;;;;;;;;;4218829;34;20144;-67
2021/08/25 09:52:00;;;;;;;5.30;3.37;;;;;;;;;;4192981;33;20132;-68
2021/08/25 09:54:26;;;;;;;12.40;4.45;;;;;;;;;;4218471;33;20114;-68
2021/08/25 09:56:53;;;;;;;5.53;3.95;;;;;;;;;;4218531;34;20144;-67
2021/08/25 09:59:19;;;;;;;9.05;4.30;;;;;;;;;;4218678;34;20521;-67
2021/08/25 10:01:46;;;;;;;5.47;4.12;;;;;;;;;;4218630;34;20108;-67
2021/08/25 10:04:14;;;;;;;4.85;3.67;;;;;;;;;;4218791;34;20090;-65
2021/08/25 10:06:41;;;;;;;4.80;3.03;;;;;;;;;;4218677;34;20110;-66
2021/08/25 10:09:08;;;;;;;8.98;4.82;;;;;;;;;;4218090;34;20196;-66
2021/08/25 10:11:56;;;;;;;11.12;3.45;;;;;;;;;;4218456;34;20096;-67
2021/08/25 10:14:22;;;;;;;10.88;4.15;;;;;;;;;;4213336;33;20498;-67
2021/08/25 10:16:51;;;;;;;4.72;2.80;;;;;;;;;;4191917;34;20108;-67
2021/08/25 10:19:27;;;;;;;4.40;3.25;;;;;;;;;;4191935;34;20118;-68
2021/08/25 10:21:57;;;;;;;6.68;3.75;;;;;;;;;;4204396;34;20110;-68
2021/08/25 10:24:23;;;;;;;7.37;3.12;;;;;;;;;;4204516;34;20121;-68
2021/08/25 10:26:59;;;;;;;5.00;3.40;;;;;;;;;;4204650;34;20517;-67
2021/08/25 10:29:25;;;;;;;7.93;3.95;;;;;;;;;;4204483;34;20599;-67
2021/08/25 10:31:54;;;;;;;5.93;3.17;;;;;;;;;;4204356;34;20185;-67
2021/08/25 10:34:33;;;;;;;4.93;3.40;;;;;;;;;;4204357;34;20193;-69
2021/08/25 10:37:11;;;;;;;6.68;4.35;;;;;;;;;;4204189;34;20133;-69
2021/08/25 10:39:38;;;;;;;7.85;3.83;;;;;;;;;;4204294;34;20133;-69
2021/08/25 10:42:04;;;;;;;9.65;3.08;;;;;;;;;;4204169;34;20102;-67
2021/08/25 10:44:47;;;;;;;9.15;4.40;;;;;;;;;;4204250;34;20549;-67
2021/08/25 10:47:14;;;;;;;8.80;2.97;;;;;;;;;;4195171;34;20106;-68
2021/08/25 10:49:42;;;;;;;7.68;3.75;;;;;;;;;;4218129;34;20278;-67
2021/08/25 10:52:14;;;;;;;13.05;3.67;;;;;;;;;;4217395;33;20139;-67
2021/08/25 10:54:48;;;;;;;7.22;3.85;;;;;;;;;;4220223;33;20658;-67
2021/08/25 10:57:15;;;;;;;7.60;3.90;;;;;;;;;;4219968;34;20113;-67
2021/08/25 10:59:42;;;;;;;9.23;3.97;;;;;;;;;;4220464;34;20122;-68
2021/08/25 11:02:08;;;;;;;8.80;4.10;;;;;;;;;;4207413;34;20168;-68
2021/08/25 11:04:34;;;;;;;5.90;4.25;;;;;;;;;;4195673;34;20109;-67
2021/08/25 11:07:09;;;;;;;7.75;3.87;;;;;;;;;;4220205;33;20117;-67
2021/08/25 11:09:38;;;;;;;11.20;5.30;;;;;;;;;;4219740;34;20136;-66
2021/08/25 11:12:09;;;;;;;10.00;3.92;;;;;;;;;;4219810;33;20104;-68
2021/08/25 11:14:45;;;;;;;5.65;4.37;;;;;;;;;;4219932;34;20280;-68
2021/08/25 11:17:12;;;;;;;7.00;3.10;;;;;;;;;;4220243;34;20131;-68
2021/08/25 11:19:45;;;;;;;5.75;3.65;;;;;;;;;;4210368;34;20117;-68
2021/08/25 11:22:17;;;;;;;5.05;3.22;;;;;;;;;;4205981;34;20113;-68
2021/08/25 11:24:46;;;;;;;5.95;3.87;;;;;;;;;;4206022;34;20098;-69
2021/08/25 11:27:25;;;;;;;4.35;2.85;;;;;;;;;;4206290;34;20125;-68
2021/08/25 11:30:08;;;;;;;11.88;3.45;;;;;;;;;;4206280;34;20519;-68
2021/08/25 11:32:58;;;;;;;14.07;3.47;;;;;;;;;;4206087;34;20216;-69
2021/08/25 11:35:33;;;;;;;4.43;2.75;;;;;;;;;;4205868;34;20173;-68
2021/08/25 11:38:07;;;;;;;6.22;3.75;;;;;;;;;;4205852;34;20524;-69
2021/08/25 11:40:33;;;;;;;10.10;4.40;;;;;;;;;;4193933;34;20114;-69
2021/08/25 11:43:07;;;;;;;8.48;3.67;;;;;;;;;;4193132;34;20503;-68
2021/08/25 11:45:33;;;;;;;4.28;3.03;;;;;;;;;;4229580;33;20128;-69
2021/08/25 11:48:00;;;;;;;6.25;3.30;;;;;;;;;;4233581;33;20121;-70
2021/08/25 11:50:28;;;;;;;3.53;2.53;;;;;;;;;;4208047;33;20121;-69
2021/08/25 11:52:54;;;;;;;5.18;2.62;;;;;;;;;;4200044;33;20123;-68
2021/08/25 11:55:20;;;;;;;3.65;2.55;;;;;;;;;;4193033;34;20201;-65
2021/08/25 11:57:50;;;;;;;3.87;2.40;;;;;;;;;;4205686;34;20612;-65
2021/08/25 12:00:17;;;;;;;7.40;3.20;;;;;;;;;;4205735;34;20478;-70
2021/08/25 12:02:56;;;;;;;6.35;3.35;;;;;;;;;;4193087;34;20100;-66
2021/08/25 12:05:24;;;;;;;4.32;2.67;;;;;;;;;;4205360;34;20109;-71
2021/08/25 12:08:09;;;;;;;8.10;2.80;;;;;;;;;;4206097;34;20102;-71
2021/08/25 12:10:40;;;;;;;4.30;2.67;;;;;;;;;;4205348;34;20241;-68
2021/08/25 12:13:06;;;;;;;6.95;3.67;;;;;;;;;;4205815;34;20522;-74
2021/08/25 12:15:51;;;;;;;7.40;3.00;;;;;;;;;;4205661;34;20142;-70
2021/08/25 12:18:19;;;;;;;8.73;3.65;;;;;;;;;;4206049;34;20129;-72
2021/08/25 12:20:47;;;;;;;4.97;3.17;;;;;;;;;;4193293;34;20110;-66
2021/08/25 12:23:15;;;;;;;8.00;3.08;;;;;;;;;;4205524;34;20145;-66
2021/08/25 12:25:43;;;;;;;4.53;3.37;;;;;;;;;;4205907;34;20478;-66
2021/08/25 12:28:14;;;;;;;5.82;3.67;;;;;;;;;;4206047;34;20102;-66
2021/08/25 12:30:41;;;;;;;9.13;4.00;;;;;;;;;;4205933;34;20118;-68
2021/08/25 12:33:08;;;;;;;8.85;3.72;;;;;;;;;;4205961;34;20089;-66
2021/08/25 12:35:34;;;;;;;6.35;3.08;;;;;;;;;;4205087;34;20110;-67
2021/08/25 12:38:00;;;;;;;8.05;3.15;;;;;;;;;;4205878;34;20133;-66
2021/08/25 12:40:27;;;;;;;3.97;2.83;;;;;;;;;;4193061;34;20479;-69
2021/08/25 12:42:53;;;;;;;3.28;2.10;;;;;;;;;;4205901;34;20109;-70
2021/08/25 12:45:20;;;;;;;4.93;3.20;;;;;;;;;;4205505;34;20160;-69
2021/08/25 12:47:50;;;;;;;5.53;2.80;;;;;;;;;;4205705;34;20094;-64
2021/08/25 12:50:20;;;;;;;8.90;2.75;;;;;;;;;;4193063;34;20197;-66
2021/08/25 12:52:46;;;;;;;5.93;2.60;;;;;;;;;;4212829;33;20105;-73
2021/08/25 12:55:12;;;;;;;5.00;2.83;;;;;;;;;;4206293;34;20110;-64
2021/08/25 12:57:39;;;;;;;3.10;2.20;;;;;;;;;;4219473;34;20121;-64
2021/08/25 13:00:06;;;;;;;3.75;2.65;;;;;;;;;;4219060;34;20097;-66
2021/08/25 13:02:32;;;;;;;5.87;2.62;;;;;;;;;;4219591;34;20180;-64
2021/08/25 13:04:58;;;;;;;3.00;2.42;;;;;;;;;;4219114;34;20140;-64
2021/08/25 13:07:24;;;;;;;6.22;3.03;;;;;;;;;;4206487;34;20139;-65
2021/08/25 13:09:50;;;;;;;4.97;3.67;;;;;;;;;;4219075;34;20140;-67
2021/08/25 13:12:16;;;;;;;3.45;2.37;;;;;;;;;;4219057;34;20228;-65
2021/08/25 13:14:42;;;;;;;4.80;2.75;;;;;;;;;;4219063;34;20213;-69
2021/08/25 13:17:08;;;;;;;2.65;2.03;;;;;;;;;;4218908;34;20129;-68
2021/08/25 13:19:34;;;;;;;5.28;2.65;;;;;;;;;;4217977;33;20113;-69
2021/08/25 13:22:00;;;;;;;6.65;3.42;;;;;;;;;;4219308;34;20112;-68
2021/08/25 13:24:26;;;;;;;4.45;3.42;;;;;;;;;;4211794;34;20185;-68
2021/08/25 13:26:53;;;;;;;2.72;2.17;;;;;;;;;;4210876;33;20140;-68
2021/08/25 13:29:19;;;;;;;6.03;2.62;;;;;;;;;;4218770;34;20494;-69
2021/08/25 13:31:46;;;;;;;3.42;2.58;;;;;;;;;;4219398;33;20102;-66
2021/08/25 13:34:12;;;;;;;7.82;2.70;;;;;;;;;;4218829;34;20133;-66
2021/08/25 13:36:38;;;;;;;8.75;2.58;;;;;;;;;;4218370;33;20204;-66
2021/08/25 13:39:04;;;;;;;6.72;3.97;;;;;;;;;;4214252;34;20538;-67
2021/08/25 13:41:29;;;;;;;7.25;2.60;;;;;;;;;;4192403;34;20552;-66
2021/08/25 13:43:56;;;;;;;3.75;2.60;;;;;;;;;;4204730;34;20529;-67
2021/08/25 13:46:23;;;;;;;7.95;3.78;;;;;;;;;;4192114;34;20116;-66
2021/08/25 13:48:49;;;;;;;5.95;3.25;;;;;;;;;;4204628;34;20105;-66
2021/08/25 13:51:15;;;;;;;6.10;3.83;;;;;;;;;;4205092;34;20137;-66
2021/08/25 13:53:41;;;;;;;6.07;3.92;;;;;;;;;;4221162;33;20443;-65
2021/08/25 13:56:08;;;;;;;10.15;3.67;;;;;;;;;;4205111;34;20117;-66
2021/08/25 13:58:34;;;;;;;5.87;2.62;;;;;;;;;;4204974;34;21697;-65
2021/08/25 14:00:59;;;;;;;5.75;3.55;;;;;;;;;;4204626;34;20192;-66
2021/08/25 14:03:25;;;;;;;5.75;3.47;;;;;;;;;;4204182;34;20222;-66
2021/08/25 14:05:51;;;;;;;3.28;2.35;;;;;;;;;;4204790;34;20133;-66
2021/08/25 14:08:17;;;;;;;9.43;4.18;;;;;;;;;;4204103;34;20125;-65
2021/08/25 14:10:43;;;;;;;4.62;3.12;;;;;;;;;;4215304;33;20133;-67
2021/08/25 14:13:09;;;;;;;6.53;3.00;;;;;;;;;;4218626;33;20116;-67
2021/08/25 14:15:36;;;;;;;7.15;4.18;;;;;;;;;;4218412;34;20156;-67
2021/08/25 14:18:02;;;;;;;5.28;2.92;;;;;;;;;;4218103;34;20133;-67
2021/08/25 14:20:29;;;;;;;5.22;3.60;;;;;;;;;;4227876;33;20101;-68
2021/08/25 14:22:55;;;;;;;9.30;4.18;;;;;;;;;;4232176;33;20097;-66
2021/08/25 14:25:21;;;;;;;4.85;2.85;;;;;;;;;;4208787;33;20136;-66
2021/08/25 14:27:47;;;;;;;6.45;4.22;;;;;;;;;;4206362;34;20139;-66
2021/08/25 14:30:13;;;;;;;10.10;4.28;;;;;;;;;;4193330;34;20549;-66
2021/08/25 14:32:39;;;;;;;8.32;4.18;;;;;;;;;;4206511;34;20208;-67
2021/08/25 14:35:06;;;;;;;5.28;3.53;;;;;;;;;;4206915;34;20125;-68
2021/08/25 14:37:35;;;;;;;6.60;2.70;;;;;;;;;;4193554;34;20121;-67
2021/08/25 14:40:03;;;;;;;5.95;3.08;;;;;;;;;;4206656;34;20316;-65
2021/08/25 14:42:29;;;;;;;3.25;2.67;;;;;;;;;;4205968;34;20193;-66
2021/08/25 14:44:55;;;;;;;10.02;2.92;;;;;;;;;;4206515;34;20121;-66
2021/08/25 14:47:21;;;;;;;6.10;3.42;;;;;;;;;;4206742;34;20205;-67
2021/08/25 14:49:47;;;;;;;4.40;2.80;;;;;;;;;;4206518;34;20506;-65
2021/08/25 14:52:13;;;;;;;3.90;2.72;;;;;;;;;;4206398;34;20098;-65
2021/08/25 14:54:39;;;;;;;3.05;2.37;;;;;;;;;;4215817;34;20622;-65
2021/08/25 14:57:05;;;;;;;5.05;3.37;;;;;;;;;;4220264;33;20113;-64
2021/08/25 14:59:33;;;;;;;4.57;2.85;;;;;;;;;;4209918;34;20123;-66
2021/08/25 15:01:59;;;;;;;2.35;1.95;;;;;;;;;;4209950;34;20318;-65